Главная страница
METAR-TAF:

METAR-TAF

Аэропорты :

Черчилл, Манитоба, Канада

широта: 58-44N, долгота: 094-04W, высота над уровнем моря: 28 м

Текущие метеонаблюдения

Эта сводка был подготовлена 24 минут назад, в 12:00 UTC
Ветер 7 Узел от западный-юго-западный
Температура 8°C
Влажность 61%
Давление 1017 hPa
Видимость: 24.1 км
Отдельные облака на высоте 8000 фута

METAR: CYYQ 231200Z 25007KT 15SM SCT080 08/01 A3004 RMK AC3 SLP175

Время: 07:24 (12:24 UTC)

Прогноз

Эта сводка был подготовлена 46 минут назад, в 11:38 UTC
Прогноз действительный с 23-го 12 UTC до 24-го 12 UTC
Ветер 10 Узел от юго-западный
Видимость: 10 км
небольшая облачность на высоте 8000 фута
С 23-го 1300 UTC
Ветер 10 Узел от южный-юго-западный
Видимость: 10 км
Рассеянная облачность на высоте 6000 фута
С 24-го 0200 UTC
Ветер 3 Узел переменных направлений
Видимость: 10 км
Отдельные облака на высоте 6000 фута

TAF: CYYQ 231138Z 2312/2412 22010KT P6SM FEW080 FM231300 21010KT P6SM BKN060 FM240200 VRB03KT P6SM SCT060 RMK NXT FCST BY 231800Z

Метеонаблюдения и прогнозы для более 4000 аэропортов (сводки METAR и TAF).

Имеющиеся станции представлены на карте желтыми и красными точками.

Чтобы увидеть название станции, наведите на нее мышь.

Затем щелкните, чтобы увидеть метеонаблюдения и метеопрогнозы.

Управление картой: чтобы увеличить масштаб, щелкните зеленые кнопки с черным крестиком; чтобы уменьшить масштаб, щелкните зеленую кнопку с тире; для просмотра соседних карт щелкайте зеленые стрелки.


METAR-TAF: